Zurich, MT (59547)

6:17 AM MDT on September 26, 2016 (GMT -0600)
NonFedAWOS | | Change Station

Elev 2416 ft 48.59 °N, 109.25 °W | Updated 37 minutes ago

Clear
Clear
39 °F
Feels Like 39 °F
N
0
Wind Variable Wind from North
Gusts 0.0 mph

Today
High -- | Low -- °F
--% Chance of Precip.
Yesterday
High -- | Low -- °F
Precip. -- in
Pressure 30.27 in
Visibility 10.0 miles
Clouds Clear
Windchill 39 °F
Dew Point 39 °F
Humidity 100%
Rainfall in
Snow Depth Not available.
7:09 AM 7:05 PM
Waning Crescent, 19% visible
METAR KHVR 261153Z AUTO 25008KT 10SM CLR 06/04 A3026 RMK AO2 SLP250 T00610044 10078 20050 58003
Pressure 30.27 in
Visibility 10.0 miles
Clouds Clear
Windchill 39 °F
Dew Point 39 °F
Humidity 100%
Rainfall in
Snow Depth Not available.
7:09 AM 7:05 PM
Waning Crescent, 19% visible
METAR KHVR 261153Z AUTO 25008KT 10SM CLR 06/04 A3026 RMK AO2 SLP250 T00610044 10078 20050 58003

10-Day Weather Forecast

Almanac

Astronomy

Sep. 26, 2016 Rise Set
Actual Time
Civil Twilight
Nautical Twilight
Astronomical Twilight
Moon
Length of Visible Light
Length of Day
Tomorrow will be .
, % of the Moon is Illuminated

Today's Extremes

State Highs State Lows

Community

WunderPhotos

Upload Photos

1,941,863 photos uploaded!

WunderBlog® & News

Nearby

Air Quality

  Air Quality AQ Index Pollutant
Not available.

Snow Depth

Station Depth Elevation

Earthquake Activity

City Distance Mag. Time & Date
Minimum magnitude displayed is 2.5.

Coastal Water Temperatures

Place Temperature

Stations

Nearby Weather Stations

Station Location Temp. Windchill Dew Point Humidity Wind Precip. Elev Updated Type
                   

Watches & Warnings

There are currently no watches in effect.